createdAt,value
2019-04-26T00:01:11.552Z,94.80
2019-04-26T00:03:45.228Z,94.90
2019-04-26T00:06:16.718Z,95.10
2019-04-26T00:08:55.049Z,95.40
2019-04-26T00:11:51.159Z,95.40
2019-04-26T00:14:59.959Z,95.50
2019-04-26T00:17:34.725Z,95.80
2019-04-26T00:20:06.743Z,96.10
2019-04-26T00:22:37.361Z,96.50
2019-04-26T00:25:08.209Z,96.10
2019-04-26T00:27:38.903Z,96.10
2019-04-26T00:30:10.690Z,96.20
2019-04-26T00:32:43.121Z,96.50
2019-04-26T00:35:14.033Z,96.50
2019-04-26T00:37:44.561Z,96.60
2019-04-26T00:40:16.222Z,96.60
2019-04-26T00:42:47.517Z,96.80
2019-04-26T00:45:18.809Z,96.80
2019-04-26T00:47:51.190Z,96.80
2019-04-26T00:50:23.240Z,97.20
2019-04-26T00:52:54.379Z,96.90
2019-04-26T00:55:25.348Z,97.00
2019-04-26T00:57:56.312Z,96.80
2019-04-26T01:00:26.788Z,97.10
2019-04-26T01:02:58.347Z,97.20
2019-04-26T01:05:30.879Z,97.30
2019-04-26T01:08:01.558Z,97.30
2019-04-26T01:10:32.172Z,97.40
2019-04-26T01:13:02.790Z,97.30
2019-04-26T01:15:33.253Z,97.30
2019-04-26T01:18:04.189Z,97.40
2019-04-26T01:20:36.613Z,97.40
2019-04-26T01:23:09.023Z,97.50
2019-04-26T01:25:44.311Z,97.50
2019-04-26T01:28:21.387Z,97.60
2019-04-26T01:30:52.911Z,97.70
2019-04-26T01:33:24.405Z,97.80
2019-04-26T01:35:55.865Z,97.70
2019-04-26T01:38:27.686Z,97.90
2019-04-26T01:41:01.671Z,97.90
2019-04-26T01:43:44.473Z,98.20
2019-04-26T01:46:22.072Z,98.40
2019-04-26T01:49:00.570Z,98.30
2019-04-26T01:52:02.186Z,98.20
2019-04-26T01:54:38.268Z,98.10
2019-04-26T01:57:09.421Z,98.10
2019-04-26T01:59:44.421Z,98.30
2019-04-26T02:02:37.201Z,98.10
2019-04-26T02:05:13.423Z,98.10
2019-04-26T02:07:44.500Z,98.00
2019-04-26T02:10:21.107Z,97.80
2019-04-26T02:12:54.576Z,97.70
2019-04-26T02:15:29.207Z,97.70
2019-04-26T02:18:01.139Z,97.70
2019-04-26T02:21:31.891Z,97.90
2019-04-26T02:24:26.414Z,98.00
2019-04-26T02:26:58.088Z,98.00
2019-04-26T02:29:29.095Z,98.10
2019-04-26T02:32:04.264Z,98.20
2019-04-26T02:34:38.039Z,98.30
2019-04-26T02:37:11.515Z,98.50
2019-04-26T02:39:43.579Z,98.40
2019-04-26T02:42:34.424Z,98.60
2019-04-26T02:45:36.793Z,98.70
2019-04-26T02:48:37.545Z,98.70
2019-04-26T02:51:13.577Z,98.90
2019-04-26T02:54:01.883Z,98.90
2019-04-26T02:56:43.855Z,99.00
2019-04-26T02:59:44.233Z,99.00
2019-04-26T03:02:25.943Z,99.10
2019-04-26T03:05:03.777Z,99.60
2019-04-26T03:08:04.392Z,99.60
2019-04-26T03:10:40.329Z,99.60
2019-04-26T03:13:22.374Z,99.90
2019-04-26T03:16:14.144Z,99.90
2019-04-26T03:18:55.560Z,99.90
2019-04-26T03:21:37.815Z,99.90
2019-04-26T03:24:21.334Z,99.90
2019-04-26T03:27:10.860Z,99.90
2019-04-26T03:30:18.223Z,99.90
2019-04-26T03:33:08.149Z,99.80
2019-04-26T03:36:19.200Z,99.90
2019-04-26T03:39:08.781Z,99.70
2019-04-26T03:42:18.940Z,99.60
2019-04-26T03:45:17.094Z,99.80
2019-04-26T03:48:27.514Z,99.90
2019-04-26T03:51:08.751Z,99.90
2019-04-26T03:53:56.825Z,99.90
2019-04-26T03:57:13.570Z,99.90
2019-04-26T04:00:14.949Z,99.90
2019-04-26T04:02:59.465Z,99.90
2019-04-26T04:05:40.122Z,99.90
2019-04-26T04:08:16.088Z,99.90
2019-04-26T04:10:54.747Z,99.90
2019-04-26T04:13:49.149Z,99.90
2019-04-26T04:16:39.186Z,99.90
2019-04-26T04:19:31.072Z,99.90
2019-04-26T04:22:06.689Z,99.90
2019-04-26T04:24:50.885Z,99.90
2019-04-26T04:27:49.260Z,99.90
2019-04-26T04:30:47.702Z,99.90
2019-04-26T04:33:37.596Z,99.90
2019-04-26T04:36:30.715Z,99.90
2019-04-26T04:39:12.220Z,99.90
2019-04-26T04:41:56.991Z,99.90
2019-04-26T04:45:28.897Z,99.80
2019-04-26T04:48:36.360Z,99.80
2019-04-26T04:51:40.872Z,99.70
2019-04-26T04:54:18.424Z,99.50
2019-04-26T04:57:38.128Z,99.20
2019-04-26T05:00:57.851Z,99.10
2019-04-26T05:03:53.091Z,99.40
2019-04-26T05:06:45.016Z,99.00
2019-04-26T05:09:23.661Z,98.50
2019-04-26T05:12:15.923Z,98.20
2019-04-26T05:15:18.979Z,98.20
2019-04-26T05:18:42.715Z,98.40
2019-04-26T05:21:29.984Z,98.40
2019-04-26T05:24:47.224Z,98.60
2019-04-26T05:27:59.986Z,98.40
2019-04-26T05:31:10.499Z,98.10
2019-04-26T05:34:23.407Z,98.20
2019-04-26T05:37:18.386Z,97.90
2019-04-26T05:40:49.672Z,97.90
2019-04-26T05:43:50.227Z,97.20
2019-04-26T05:47:19.324Z,96.90
2019-04-26T05:51:03.256Z,96.90
2019-04-26T05:54:13.133Z,97.00
2019-04-26T05:57:24.047Z,97.10
2019-04-26T06:00:45.647Z,96.90
2019-04-26T06:04:40.200Z,96.90
2019-04-26T06:07:31.720Z,96.60
2019-04-26T06:10:29.436Z,96.60
2019-04-26T06:13:35.042Z,96.40
2019-04-26T06:16:36.854Z,96.10
2019-04-26T06:19:24.692Z,95.90
2019-04-26T06:22:20.526Z,95.70
2019-04-26T06:25:35.792Z,95.60
2019-04-26T06:28:24.190Z,95.60
2019-04-26T06:31:03.467Z,95.40
2019-04-26T06:33:40.415Z,95.60
2019-04-26T06:36:18.168Z,96.10
2019-04-26T06:39:22.007Z,95.60
2019-04-26T06:42:31.241Z,95.60
2019-04-26T06:45:51.630Z,95.10
2019-04-26T06:48:40.431Z,94.90
2019-04-26T06:51:24.092Z,95.00
2019-04-26T06:54:21.127Z,94.80
2019-04-26T06:57:59.969Z,94.50
2019-04-26T07:01:08.045Z,94.40
2019-04-26T07:04:35.931Z,94.40
2019-04-26T07:07:28.170Z,93.80
2019-04-26T07:10:12.801Z,94.00
2019-04-26T07:12:56.548Z,94.00
2019-04-26T07:16:22.007Z,93.50
2019-04-26T07:19:05.928Z,93.70
2019-04-26T07:22:42.936Z,93.20
2019-04-26T07:26:01.716Z,93.30
2019-04-26T07:29:26.500Z,92.70
2019-04-26T07:32:05.305Z,92.70
2019-04-26T07:34:53.399Z,92.50
2019-04-26T07:37:41.948Z,92.10
2019-04-26T07:40:49.532Z,91.50
2019-04-26T07:43:51.102Z,91.60
2019-04-26T07:47:04.150Z,91.30
2019-04-26T07:50:11.518Z,91.30
2019-04-26T07:53:27.034Z,91.10
2019-04-26T07:56:26.644Z,90.70
2019-04-26T07:59:43.514Z,90.70
2019-04-26T08:02:37.885Z,90.60
2019-04-26T08:05:40.337Z,90.50
2019-04-26T08:08:13.587Z,90.00
2019-04-26T08:11:04.394Z,89.30
2019-04-26T08:13:38.541Z,88.90
2019-04-26T08:16:29.867Z,89.10
2019-04-26T08:19:06.992Z,87.30
2019-04-26T08:21:47.844Z,87.60
2019-04-26T08:24:21.846Z,86.80
2019-04-26T08:27:23.635Z,85.80
2019-04-26T08:30:03.433Z,85.60
2019-04-26T08:32:38.602Z,86.00
2019-04-26T08:35:21.751Z,85.20
2019-04-26T08:37:55.426Z,83.20
2019-04-26T08:40:31.083Z,82.90
2019-04-26T08:43:21.108Z,83.40
2019-04-26T08:46:18.274Z,83.70
2019-04-26T08:49:02.150Z,82.30
2019-04-26T08:51:33.540Z,83.50
2019-04-26T08:54:09.390Z,81.20
2019-04-26T08:56:44.307Z,80.80
2019-04-26T08:59:24.292Z,81.20
2019-04-26T09:02:16.510Z,80.00
2019-04-26T09:05:07.304Z,79.60
2019-04-26T09:07:40.728Z,79.70
2019-04-26T09:10:14.294Z,78.00
2019-04-26T09:12:47.564Z,77.70
2019-04-26T09:15:24.255Z,75.80
2019-04-26T09:17:54.777Z,76.10
2019-04-26T09:20:29.556Z,77.40
2019-04-26T09:23:39.806Z,74.90
2019-04-26T09:26:04.157Z,75.70
2019-04-26T09:28:56.511Z,73.20
2019-04-26T09:31:34.967Z,72.20
2019-04-26T09:34:10.418Z,73.30
2019-04-26T09:36:40.329Z,72.90
2019-04-26T09:39:35.153Z,73.40
2019-04-26T09:42:13.159Z,73.70
2019-04-26T09:45:00.327Z,74.20
2019-04-26T09:47:42.730Z,72.10
2019-04-26T09:50:22.523Z,71.00
2019-04-26T09:52:53.407Z,71.70
2019-04-26T09:55:34.775Z,69.10
2019-04-26T09:57:56.969Z,71.60
2019-04-26T10:00:29.794Z,70.00
2019-04-26T10:03:05.547Z,71.00
2019-04-26T10:05:34.618Z,70.90
2019-04-26T10:08:08.461Z,69.90
2019-04-26T10:10:37.690Z,69.60
2019-04-26T10:13:26.176Z,67.70
2019-04-26T10:16:07.940Z,66.00
2019-04-26T10:18:39.869Z,67.30
2019-04-26T10:21:10.779Z,67.00
2019-04-26T10:23:41.245Z,65.40
2019-04-26T10:26:12.068Z,65.30
2019-04-26T10:28:42.536Z,66.10
2019-04-26T10:31:13.632Z,66.40
2019-04-26T10:33:45.528Z,65.10
2019-04-26T10:36:16.169Z,65.00
2019-04-26T10:38:46.954Z,65.30
2019-04-26T10:41:17.604Z,64.20
2019-04-26T10:43:48.166Z,64.40
2019-04-26T10:46:18.786Z,62.80
2019-04-26T10:48:50.041Z,60.40
2019-04-26T10:51:30.627Z,60.90
2019-04-26T10:54:07.823Z,59.80
2019-04-26T10:56:42.807Z,58.90
2019-04-26T10:59:26.495Z,58.80
2019-04-26T11:01:56.989Z,59.50
2019-04-26T11:04:27.643Z,57.90
2019-04-26T11:07:01.852Z,57.60
2019-04-26T11:09:30.735Z,57.00
2019-04-26T11:12:01.219Z,57.30
2019-04-26T11:14:31.953Z,57.10
2019-04-26T11:17:03.405Z,56.80
2019-04-26T11:19:35.446Z,56.60
2019-04-26T11:22:06.347Z,56.70
2019-04-26T11:24:36.783Z,56.10
2019-04-26T11:27:09.727Z,56.40
2019-04-26T11:29:39.678Z,56.10
2019-04-26T11:32:10.588Z,55.50
2019-04-26T11:34:42.851Z,54.40
2019-04-26T11:37:17.545Z,54.20
2019-04-26T11:39:45.612Z,55.10
2019-04-26T11:42:16.417Z,53.70
2019-04-26T11:44:47.513Z,53.90
2019-04-26T11:47:18.516Z,53.90
2019-04-26T11:49:50.098Z,53.80
2019-04-26T11:52:21.044Z,53.20
2019-04-26T11:54:55.246Z,52.60
2019-04-26T11:57:23.684Z,53.20
2019-04-26T11:59:54.722Z,52.70
2019-04-26T12:02:25.162Z,51.00
2019-04-26T12:05:03.714Z,49.10
2019-04-26T12:07:41.530Z,46.40
2019-04-26T12:10:12.355Z,46.20
2019-04-26T12:12:46.484Z,46.80
2019-04-26T12:15:15.456Z,46.00
2019-04-26T12:17:58.076Z,44.80
2019-04-26T12:20:18.399Z,45.50
2019-04-26T12:22:50.029Z,43.90
2019-04-26T12:25:20.477Z,43.30
2019-04-26T12:27:53.447Z,42.60
2019-04-26T12:30:26.551Z,40.20
2019-04-26T12:32:56.247Z,36.30
2019-04-26T12:35:26.709Z,34.30
2019-04-26T12:37:57.323Z,32.90
2019-04-26T12:40:28.012Z,32.50
2019-04-26T12:42:58.918Z,30.90
2019-04-26T12:45:58.476Z,29.90
2019-04-26T12:48:29.157Z,29.30
2019-04-26T12:51:00.143Z,28.90
2019-04-26T12:53:32.653Z,28.40
2019-04-26T12:56:03.585Z,28.40
2019-04-26T12:58:33.983Z,27.80
2019-04-26T13:01:07.913Z,26.70
2019-04-26T13:03:38.961Z,26.80
2019-04-26T13:06:09.891Z,26.90
2019-04-26T13:08:40.456Z,27.30
2019-04-26T13:11:31.291Z,27.10
2019-04-26T13:14:16.065Z,27.20
2019-04-26T13:17:10.299Z,27.50
2019-04-26T13:19:40.748Z,27.60
2019-04-26T13:22:12.573Z,26.30
2019-04-26T13:24:43.234Z,26.30
2019-04-26T13:27:13.797Z,26.70
2019-04-26T13:29:44.242Z,26.80
2019-04-26T13:32:14.890Z,26.30
2019-04-26T13:34:45.380Z,26.40
2019-04-26T13:37:15.900Z,27.00
2019-04-26T13:39:46.556Z,26.30
2019-04-26T13:42:18.565Z,26.60
2019-04-26T13:44:57.741Z,26.70
2019-04-26T13:47:50.127Z,27.40
2019-04-26T13:50:36.937Z,28.60
2019-04-26T13:53:07.528Z,30.50
2019-04-26T13:55:38.056Z,30.40
2019-04-26T13:58:08.938Z,30.10
2019-04-26T14:00:39.796Z,30.00
2019-04-26T14:03:11.740Z,29.90
2019-04-26T14:05:43.245Z,29.60
2019-04-26T14:08:13.675Z,28.20
2019-04-26T14:10:45.548Z,28.40
2019-04-26T14:13:16.201Z,29.70
2019-04-26T14:15:50.363Z,31.10
2019-04-26T14:18:19.174Z,32.50
2019-04-26T14:20:49.786Z,31.50
2019-04-26T14:23:38.002Z,30.60
2019-04-26T14:26:11.359Z,29.50
2019-04-26T14:28:42.269Z,29.00
2019-04-26T14:31:16.465Z,29.20
2019-04-26T14:33:44.957Z,29.60
2019-04-26T14:36:17.925Z,29.80
2019-04-26T14:38:47.970Z,30.20
2019-04-26T14:41:22.574Z,29.90
2019-04-26T14:43:52.491Z,30.00
2019-04-26T14:46:23.682Z,30.00
2019-04-26T14:49:01.360Z,29.80
2019-04-26T14:51:26.794Z,29.40
2019-04-26T14:53:57.436Z,29.50
2019-04-26T14:56:29.464Z,29.00
2019-04-26T14:59:01.869Z,28.60
2019-04-26T15:02:02.682Z,28.80
2019-04-26T15:04:53.338Z,29.10
2019-04-26T15:07:23.930Z,30.50
2019-04-26T15:09:54.458Z,31.40
2019-04-26T15:12:24.954Z,32.40
2019-04-26T15:14:56.719Z,32.60
2019-04-26T15:17:27.582Z,33.50
2019-04-26T15:19:58.158Z,32.50
2019-04-26T15:22:28.655Z,33.40
2019-04-26T15:24:59.149Z,33.80
2019-04-26T15:27:32.237Z,33.30
2019-04-26T15:30:04.205Z,32.80
2019-04-26T15:32:35.345Z,32.40
2019-04-26T15:35:07.641Z,32.60
2019-04-26T15:37:38.426Z,31.60
2019-04-26T15:40:31.921Z,31.90
2019-04-26T15:43:16.636Z,32.20
2019-04-26T15:46:08.186Z,32.70
2019-04-26T15:48:50.392Z,33.50
2019-04-26T15:51:24.480Z,33.90
2019-04-26T15:53:54.469Z,34.60
2019-04-26T15:56:25.091Z,34.60
2019-04-26T15:58:55.553Z,34.30
2019-04-26T16:01:26.417Z,34.80
2019-04-26T16:03:57.043Z,34.80
2019-04-26T16:06:27.575Z,35.00
2019-04-26T16:08:58.096Z,35.20
2019-04-26T16:11:28.778Z,35.20
2019-04-26T16:13:59.349Z,36.10
2019-04-26T16:16:32.996Z,37.50
2019-04-26T16:19:02.967Z,38.60
2019-04-26T16:21:33.954Z,39.70
2019-04-26T16:24:04.927Z,41.10
2019-04-26T16:26:36.127Z,41.90
2019-04-26T16:29:24.172Z,43.20
2019-04-26T16:32:12.496Z,43.20
2019-04-26T16:34:47.566Z,44.30
2019-04-26T16:37:22.006Z,51.50
2019-04-26T16:39:49.677Z,51.50
2019-04-26T16:42:20.838Z,48.90
2019-04-26T16:44:53.153Z,51.50
2019-04-26T16:47:23.877Z,50.10
2019-04-26T16:49:54.820Z,49.50
2019-04-26T16:52:25.678Z,50.90
2019-04-26T16:55:02.314Z,50.80
2019-04-26T16:57:28.815Z,49.50
2019-04-26T17:00:00.279Z,50.00
2019-04-26T17:02:34.726Z,51.20
2019-04-26T17:05:16.814Z,50.10
2019-04-26T17:07:39.314Z,52.30
2019-04-26T17:10:09.853Z,50.50
2019-04-26T17:12:42.206Z,50.20
2019-04-26T17:15:13.287Z,50.40
2019-04-26T17:17:45.222Z,51.30
2019-04-26T17:20:17.794Z,51.60
2019-04-26T17:23:03.275Z,51.60
2019-04-26T17:26:04.142Z,52.10
2019-04-26T17:28:34.952Z,52.10
2019-04-26T17:31:05.690Z,52.60
2019-04-26T17:33:36.362Z,52.70
2019-04-26T17:36:06.945Z,53.90
2019-04-26T17:38:39.316Z,52.80
2019-04-26T17:41:12.664Z,53.30
2019-04-26T17:43:47.460Z,53.50
2019-04-26T17:46:18.167Z,55.70
2019-04-26T17:48:49.237Z,56.20
2019-04-26T17:51:22.838Z,55.40
2019-04-26T17:54:18.609Z,57.00
2019-04-26T17:56:26.094Z,57.50
2019-04-26T17:58:56.879Z,57.10
2019-04-26T18:01:43.862Z,56.60
2019-04-26T18:04:00.784Z,56.30
2019-04-26T18:06:31.769Z,55.90
2019-04-26T18:09:02.675Z,55.80
2019-04-26T18:11:35.042Z,56.90
2019-04-26T18:14:08.172Z,58.00
2019-04-26T18:16:42.714Z,57.60
2019-04-26T18:19:38.817Z,58.10
2019-04-26T18:22:24.274Z,58.00
2019-04-26T18:24:55.132Z,59.10
2019-04-26T18:27:25.816Z,60.30
2019-04-26T18:29:59.867Z,60.30
2019-04-26T18:32:29.024Z,61.20
2019-04-26T18:34:59.628Z,60.70
2019-04-26T18:37:30.488Z,60.90
2019-04-26T18:40:04.471Z,61.20
2019-04-26T18:42:37.586Z,60.60
2019-04-26T18:45:08.433Z,61.00
2019-04-26T18:47:41.433Z,62.60
2019-04-26T18:50:12.665Z,63.20
2019-04-26T18:52:56.501Z,63.50
2019-04-26T18:55:29.869Z,63.50
2019-04-26T18:58:03.640Z,61.90
2019-04-26T19:00:36.708Z,61.80
2019-04-26T19:03:07.528Z,61.20
2019-04-26T19:05:38.591Z,61.90
2019-04-26T19:08:10.100Z,62.00
2019-04-26T19:10:43.180Z,62.00
2019-04-26T19:13:30.946Z,62.30
2019-04-26T19:16:21.889Z,62.10
2019-04-26T19:18:58.035Z,63.00
2019-04-26T19:21:45.974Z,62.50
2019-04-26T19:24:19.777Z,61.80
2019-04-26T19:26:49.933Z,62.80
2019-04-26T19:29:27.409Z,63.40
2019-04-26T19:31:56.648Z,63.10
2019-04-26T19:34:26.079Z,64.50
2019-04-26T19:36:59.741Z,67.40
2019-04-26T19:39:35.041Z,66.60
2019-04-26T19:42:05.985Z,67.10
2019-04-26T19:44:36.045Z,66.40
2019-04-26T19:47:25.886Z,66.50
2019-04-26T19:50:17.951Z,65.80
2019-04-26T19:53:10.329Z,65.80
2019-04-26T19:56:01.572Z,67.80
2019-04-26T19:58:32.982Z,67.20
2019-04-26T20:01:04.386Z,67.80
2019-04-26T20:03:35.320Z,69.30
2019-04-26T20:06:06.058Z,69.90
2019-04-26T20:08:44.052Z,71.30
2019-04-26T20:11:12.878Z,72.80
2019-04-26T20:13:46.856Z,73.60
2019-04-26T20:16:15.701Z,74.40
2019-04-26T20:18:46.666Z,75.60
2019-04-26T20:21:17.649Z,74.60
2019-04-26T20:23:48.866Z,73.80
2019-04-26T20:26:19.376Z,72.90
2019-04-26T20:28:51.404Z,72.60
2019-04-26T20:31:47.483Z,70.90
2019-04-26T20:34:18.409Z,72.00
2019-04-26T20:36:49.084Z,74.30
2019-04-26T20:39:20.870Z,73.70
2019-04-26T20:42:00.980Z,73.80
2019-04-26T20:44:39.203Z,74.40
2019-04-26T20:47:00.638Z,75.70
2019-04-26T20:49:32.202Z,76.10
2019-04-26T20:52:03.001Z,76.10
2019-04-26T20:54:33.757Z,76.50
2019-04-26T20:57:04.301Z,76.70
2019-04-26T20:59:35.375Z,76.90
2019-04-26T21:02:08.056Z,78.00
2019-04-26T21:04:44.241Z,78.00
2019-04-26T21:07:14.216Z,79.90
2019-04-26T21:09:44.871Z,80.40
2019-04-26T21:12:18.351Z,81.40
2019-04-26T21:14:48.453Z,82.10
2019-04-26T21:17:19.477Z,81.80
2019-04-26T21:19:54.918Z,82.40
2019-04-26T21:22:28.391Z,82.80
2019-04-26T21:25:04.320Z,82.10
2019-04-26T21:28:02.395Z,81.30
2019-04-26T21:30:46.744Z,81.00
2019-04-26T21:33:28.795Z,82.30
2019-04-26T21:36:05.941Z,80.90
2019-04-26T21:38:47.814Z,82.60
2019-04-26T21:41:23.466Z,83.40
2019-04-26T21:43:53.820Z,84.10
2019-04-26T21:46:24.615Z,84.40
2019-04-26T21:48:55.776Z,86.20
2019-04-26T21:51:26.702Z,87.70
2019-04-26T21:53:57.704Z,89.10
2019-04-26T21:56:28.265Z,90.20
2019-04-26T21:58:59.024Z,90.40
2019-04-26T22:01:30.034Z,90.70
2019-04-26T22:04:03.018Z,90.90
2019-04-26T22:06:34.786Z,91.60
2019-04-26T22:09:16.935Z,91.90
2019-04-26T22:11:49.396Z,92.40
2019-04-26T22:14:24.239Z,93.30
2019-04-26T22:17:13.763Z,93.30
2019-04-26T22:20:06.662Z,93.50
2019-04-26T22:23:06.283Z,93.60
2019-04-26T22:25:39.083Z,94.20
2019-04-26T22:28:09.852Z,94.40
2019-04-26T22:30:41.408Z,94.10
2019-04-26T22:33:13.241Z,94.50
2019-04-26T22:35:44.029Z,95.20
2019-04-26T22:38:17.553Z,94.80
2019-04-26T22:40:48.521Z,95.30
2019-04-26T22:43:35.379Z,95.80
2019-04-26T22:46:29.720Z,96.30
2019-04-26T22:49:01.216Z,96.50
2019-04-26T22:51:33.660Z,96.70
2019-04-26T22:54:06.076Z,96.80
2019-04-26T22:56:37.246Z,96.70
2019-04-26T22:59:08.400Z,96.50
2019-04-26T23:01:43.637Z,96.20
2019-04-26T23:04:15.670Z,96.20
2019-04-26T23:06:46.872Z,95.20
2019-04-26T23:09:20.444Z,95.30
2019-04-26T23:11:55.356Z,95.60
2019-04-26T23:14:33.704Z,95.30
2019-04-26T23:17:37.278Z,95.80
2019-04-26T23:20:19.120Z,95.70
2019-04-26T23:22:49.780Z,95.80
2019-04-26T23:25:20.348Z,95.90
2019-04-26T23:27:56.064Z,95.90
2019-04-26T23:30:23.189Z,96.10
2019-04-26T23:32:53.755Z,96.30
2019-04-26T23:35:24.486Z,96.50
2019-04-26T23:37:56.640Z,96.60
2019-04-26T23:40:28.986Z,96.80
2019-04-26T23:42:59.754Z,97.30
2019-04-26T23:45:30.230Z,96.90
2019-04-26T23:48:01.252Z,97.30
2019-04-26T23:50:31.800Z,97.50
2019-04-26T23:53:03.021Z,97.60
2019-04-26T23:55:34.085Z,97.70
2019-04-26T23:58:10.241Z,98.30
